createdAt,value
2023-05-09T00:01:27.671Z,98125.50
2023-05-09T00:05:30.894Z,98125.44
2023-05-09T00:09:34.517Z,98128.38
2023-05-09T00:13:39.333Z,98123.59
2023-05-09T00:17:43.328Z,98119.97
2023-05-09T00:21:46.471Z,98124.03
2023-05-09T00:25:50.095Z,98124.47
2023-05-09T00:29:54.322Z,98117.94
2023-05-09T00:33:58.124Z,98112.19
2023-05-09T00:38:01.419Z,98107.44
2023-05-09T00:42:05.711Z,98105.94
2023-05-09T00:46:10.333Z,98104.63
2023-05-09T00:50:14.369Z,98104.94
2023-05-09T00:54:17.565Z,98100.00
2023-05-09T00:58:22.094Z,98095.94
2023-05-09T01:02:27.532Z,98093.75
2023-05-09T01:06:40.026Z,98086.53
2023-05-09T01:10:50.887Z,98091.91
2023-05-09T01:15:01.658Z,98083.75
2023-05-09T01:19:31.918Z,98076.38
2023-05-09T01:24:10.928Z,98074.06
2023-05-09T01:28:36.965Z,98069.16
2023-05-09T01:32:47.600Z,98072.34
2023-05-09T01:36:53.861Z,98064.19
2023-05-09T01:41:00.316Z,98073.28
2023-05-09T01:45:05.979Z,98066.03
2023-05-09T01:49:11.677Z,98064.84
2023-05-09T01:53:17.644Z,98061.03
2023-05-09T01:57:22.225Z,98066.88
2023-05-09T02:01:26.756Z,98054.28
2023-05-09T02:05:33.283Z,98061.69
2023-05-09T02:09:36.907Z,98066.53
2023-05-09T02:13:39.910Z,98067.78
2023-05-09T02:17:43.656Z,98060.41
2023-05-09T02:21:48.356Z,98066.84
2023-05-09T02:25:55.083Z,98069.94
2023-05-09T02:30:01.921Z,98067.63
2023-05-09T02:34:06.965Z,98067.06
2023-05-09T02:38:12.024Z,98055.84
2023-05-09T02:42:18.225Z,98056.28
2023-05-09T02:46:21.285Z,98060.81
2023-05-09T02:50:25.379Z,98055.09
2023-05-09T02:54:30.292Z,98059.75
2023-05-09T02:58:33.748Z,98051.13
2023-05-09T03:02:37.151Z,98051.28
2023-05-09T03:06:40.822Z,98051.03
2023-05-09T03:10:45.466Z,98057.50
2023-05-09T03:14:49.175Z,98042.31
2023-05-09T03:18:52.210Z,98034.13
2023-05-09T03:22:55.715Z,98036.34
2023-05-09T03:27:00.217Z,98039.53
2023-05-09T03:31:03.740Z,98037.50
2023-05-09T03:35:07.842Z,98039.56
2023-05-09T03:39:11.671Z,98035.59
2023-05-09T03:43:16.556Z,98037.00
2023-05-09T03:47:19.964Z,98044.94
2023-05-09T03:51:23.481Z,98044.94
2023-05-09T03:55:27.263Z,98054.81
2023-05-09T03:59:31.892Z,98060.56
2023-05-09T04:03:35.532Z,98056.47
2023-05-09T04:07:39.939Z,98054.69
2023-05-09T04:11:43.364Z,98061.41
2023-05-09T04:15:48.161Z,98057.84
2023-05-09T04:19:51.454Z,98063.59
2023-05-09T04:23:55.105Z,98065.22
2023-05-09T04:27:58.936Z,98064.94
2023-05-09T04:32:05.277Z,98064.66
2023-05-09T04:36:09.762Z,98063.69
2023-05-09T04:40:14.721Z,98060.81
2023-05-09T04:44:19.562Z,98059.84
2023-05-09T04:48:24.560Z,98054.50
2023-05-09T04:52:28.040Z,98059.56
2023-05-09T04:56:31.795Z,98053.38
2023-05-09T05:00:35.729Z,98058.28
2023-05-09T05:04:40.688Z,98057.19
2023-05-09T05:08:44.474Z,98070.44
2023-05-09T05:12:47.828Z,98062.06
2023-05-09T05:16:51.250Z,98062.16
2023-05-09T05:20:56.397Z,98065.03
2023-05-09T05:25:00.628Z,98065.78
2023-05-09T05:29:04.392Z,98065.03
2023-05-09T05:33:08.415Z,98061.28
2023-05-09T05:37:13.401Z,98063.66
2023-05-09T05:41:17.489Z,98058.56
2023-05-09T05:45:21.311Z,98054.69
2023-05-09T05:49:26.920Z,98060.00
2023-05-09T05:53:32.845Z,98054.34
2023-05-09T05:57:38.066Z,98056.91
2023-05-09T06:01:42.081Z,98061.19
2023-05-09T06:05:46.626Z,98059.47
2023-05-09T06:09:51.831Z,98045.88
2023-05-09T06:13:55.506Z,98048.91
2023-05-09T06:17:59.816Z,98042.88
2023-05-09T06:22:04.484Z,98038.56
2023-05-09T06:26:10.577Z,98036.22
2023-05-09T06:30:25.328Z,98035.63
2023-05-09T06:34:29.510Z,98026.78
2023-05-09T06:38:33.115Z,98014.41
2023-05-09T06:42:37.855Z,98020.00
2023-05-09T06:46:41.358Z,98008.56
2023-05-09T06:50:44.891Z,98011.31
2023-05-09T06:54:49.801Z,97999.13
2023-05-09T06:58:54.514Z,97995.41
2023-05-09T07:02:58.409Z,97991.66
2023-05-09T07:07:01.826Z,98000.25
2023-05-09T07:11:05.019Z,97989.72
2023-05-09T07:15:12.176Z,97986.97
2023-05-09T07:19:15.915Z,97985.91
2023-05-09T07:23:19.283Z,97984.56
2023-05-09T07:27:22.851Z,97989.03
2023-05-09T07:31:27.954Z,97982.47
2023-05-09T07:35:31.718Z,97970.00
2023-05-09T07:39:34.908Z,97964.03
2023-05-09T07:43:38.302Z,97953.19
2023-05-09T07:47:42.754Z,97954.03
2023-05-09T07:51:46.557Z,97945.13
2023-05-09T07:55:50.725Z,97939.97
2023-05-09T07:59:54.414Z,97929.91
2023-05-09T08:03:59.510Z,97927.78
2023-05-09T08:08:03.121Z,97920.34
2023-05-09T08:12:07.155Z,97918.66
2023-05-09T08:16:11.352Z,97918.59
2023-05-09T08:20:16.553Z,97909.19
2023-05-09T08:24:20.534Z,97906.88
2023-05-09T08:28:24.792Z,97895.56
2023-05-09T08:32:28.320Z,97905.19
2023-05-09T08:36:32.736Z,97907.34
2023-05-09T08:40:38.412Z,97902.38
2023-05-09T08:44:41.466Z,97894.69
2023-05-09T08:48:45.949Z,97890.88
2023-05-09T08:52:50.623Z,97888.88
2023-05-09T08:56:54.651Z,97878.06
2023-05-09T09:00:58.263Z,97865.47
2023-05-09T09:05:03.221Z,97870.31
2023-05-09T09:09:09.834Z,97877.94
2023-05-09T09:13:15.348Z,97871.53
2023-05-09T09:17:22.528Z,97863.94
2023-05-09T09:21:25.857Z,97860.34
2023-05-09T09:25:30.491Z,97849.72
2023-05-09T09:29:35.532Z,97854.53
2023-05-09T09:33:38.822Z,97840.88
2023-05-09T09:37:43.704Z,97839.28
2023-05-09T09:41:48.452Z,97822.97
2023-05-09T09:45:53.331Z,97827.13
2023-05-09T09:49:57.130Z,97815.22
2023-05-09T09:54:06.029Z,97811.44
2023-05-09T09:58:22.654Z,97809.91
2023-05-09T10:02:26.899Z,97802.72
2023-05-09T10:06:32.018Z,97787.06
2023-05-09T10:10:37.918Z,97785.69
2023-05-09T10:14:44.856Z,97787.53
2023-05-09T10:18:48.217Z,97784.94
2023-05-09T10:22:55.526Z,97769.38
2023-05-09T10:27:05.745Z,97763.38
2023-05-09T10:31:15.112Z,97758.94
2023-05-09T10:35:20.011Z,97753.06
2023-05-09T10:39:24.844Z,97752.47
2023-05-09T10:43:28.684Z,97744.44
2023-05-09T10:47:34.273Z,97736.69
2023-05-09T10:51:38.096Z,97733.84
2023-05-09T10:55:51.253Z,97726.97
2023-05-09T10:59:56.400Z,97711.97
2023-05-09T11:04:02.057Z,97702.38
2023-05-09T11:08:27.028Z,97690.66
2023-05-09T11:12:30.362Z,97697.25
2023-05-09T11:17:01.567Z,97677.81
2023-05-09T11:21:10.789Z,97675.94
2023-05-09T11:25:17.078Z,97677.66
2023-05-09T11:29:20.818Z,97662.25
2023-05-09T11:33:28.919Z,97664.47
2023-05-09T11:37:33.498Z,97652.50
2023-05-09T11:41:44.802Z,97649.16
2023-05-09T11:45:48.011Z,97643.84
2023-05-09T11:49:52.232Z,97632.97
2023-05-09T11:53:57.151Z,97631.91
2023-05-09T11:58:00.871Z,97618.13
2023-05-09T12:02:07.011Z,97604.59
2023-05-09T12:06:11.371Z,97593.47
2023-05-09T12:10:18.533Z,97596.16
2023-05-09T12:14:29.356Z,97592.41
2023-05-09T12:18:33.212Z,97576.94
2023-05-09T12:22:37.868Z,97563.59
2023-05-09T12:26:43.296Z,97560.19
2023-05-09T12:30:47.073Z,97558.34
2023-05-09T12:34:51.641Z,97552.47
2023-05-09T12:38:55.795Z,97550.63
2023-05-09T12:43:03.034Z,97540.78
2023-05-09T12:47:06.925Z,97538.66
2023-05-09T12:51:13.416Z,97528.81
2023-05-09T12:55:17.159Z,97525.88
2023-05-09T12:59:26.267Z,97509.34
2023-05-09T13:03:31.748Z,97515.28
2023-05-09T13:07:40.623Z,97497.09
2023-05-09T13:11:44.750Z,97492.59
2023-05-09T13:15:50.161Z,97494.44
2023-05-09T13:19:53.842Z,97484.31
2023-05-09T13:23:57.035Z,97475.75
2023-05-09T13:28:00.058Z,97457.31
2023-05-09T13:32:04.853Z,97457.59
2023-05-09T13:36:08.731Z,97444.72
2023-05-09T13:40:12.990Z,97440.94
2023-05-09T13:44:17.116Z,97431.59
2023-05-09T13:48:21.753Z,97428.13
2023-05-09T13:52:25.261Z,97422.78
2023-05-09T13:56:28.587Z,97417.69
2023-05-09T14:00:31.909Z,97407.56
2023-05-09T14:04:37.030Z,97398.19
2023-05-09T14:08:41.007Z,97391.56
2023-05-09T14:12:45.978Z,97388.03
2023-05-09T14:16:50.820Z,97388.31
2023-05-09T14:20:55.536Z,97375.75
2023-05-09T14:24:59.085Z,97386.44
2023-05-09T14:29:03.064Z,97372.03
2023-05-09T14:33:06.199Z,97358.91
2023-05-09T14:37:13.996Z,97351.19
2023-05-09T14:41:18.652Z,97349.56
2023-05-09T14:45:24.017Z,97341.28
2023-05-09T14:49:27.755Z,97332.47
2023-05-09T14:53:33.067Z,97337.53
2023-05-09T14:57:36.523Z,97330.31
2023-05-09T15:01:40.538Z,97317.97
2023-05-09T15:05:44.176Z,97307.56
2023-05-09T15:09:49.013Z,97318.22
2023-05-09T15:13:55.113Z,97312.84
2023-05-09T15:17:59.900Z,97305.06
2023-05-09T15:22:04.300Z,97300.19
2023-05-09T15:26:14.832Z,97303.31
2023-05-09T15:30:18.665Z,97305.31
2023-05-09T15:34:24.022Z,97293.41
2023-05-09T15:38:27.341Z,97282.56
2023-05-09T15:42:32.463Z,97286.41
2023-05-09T15:46:35.996Z,97283.59
2023-05-09T15:50:39.592Z,97273.88
2023-05-09T15:54:45.500Z,97278.34
2023-05-09T15:58:50.449Z,97274.56
2023-05-09T16:02:54.390Z,97269.66
2023-05-09T16:06:58.354Z,97269.50
2023-05-09T16:11:02.300Z,97261.88
2023-05-09T16:15:08.469Z,97255.91
2023-05-09T16:19:13.378Z,97258.63
2023-05-09T16:23:17.144Z,97248.56
2023-05-09T16:27:20.753Z,97247.75
2023-05-09T16:31:27.137Z,97241.69
2023-05-09T16:35:30.576Z,97241.50
2023-05-09T16:39:34.576Z,97233.53
2023-05-09T16:43:38.058Z,97222.47
2023-05-09T16:47:43.059Z,97226.47
2023-05-09T16:51:46.389Z,97214.06
2023-05-09T16:55:50.267Z,97207.00
2023-05-09T16:59:53.635Z,97218.16
2023-05-09T17:03:59.418Z,97210.72
2023-05-09T17:08:03.003Z,97207.69
2023-05-09T17:12:06.885Z,97206.84
2023-05-09T17:16:11.722Z,97204.38
2023-05-09T17:20:17.532Z,97191.63
2023-05-09T17:24:22.891Z,97197.66
2023-05-09T17:28:26.762Z,97200.97
2023-05-09T17:32:31.243Z,97200.88
2023-05-09T17:36:36.439Z,97205.25
2023-05-09T17:40:41.037Z,97205.94
2023-05-09T17:44:46.336Z,97198.66
2023-05-09T17:48:49.764Z,97194.00
2023-05-09T17:52:56.796Z,97189.97
2023-05-09T17:57:02.486Z,97189.59
2023-05-09T18:01:05.880Z,97187.59
2023-05-09T18:05:10.752Z,97183.16
2023-05-09T18:09:15.979Z,97190.38
2023-05-09T18:13:19.694Z,97185.97
2023-05-09T18:17:23.220Z,97175.19
2023-05-09T18:21:26.992Z,97174.16
2023-05-09T18:25:31.686Z,97164.19
2023-05-09T18:29:34.954Z,97164.72
2023-05-09T18:33:39.679Z,97166.06
2023-05-09T18:37:42.976Z,97165.41
2023-05-09T18:41:48.197Z,97165.72
2023-05-09T18:45:52.504Z,97168.25
2023-05-09T18:49:55.787Z,97165.69
2023-05-09T18:53:59.282Z,97157.69
2023-05-09T18:58:04.024Z,97161.75
2023-05-09T19:02:07.160Z,97161.41
2023-05-09T19:06:10.890Z,97164.72
2023-05-09T19:10:18.284Z,97156.47
2023-05-09T19:14:23.924Z,97162.97
2023-05-09T19:18:27.853Z,97150.28
2023-05-09T19:22:31.797Z,97148.69
2023-05-09T19:26:35.455Z,97153.59
2023-05-09T19:30:39.983Z,97144.31
2023-05-09T19:34:43.367Z,97150.03
2023-05-09T19:38:46.890Z,97139.91
2023-05-09T19:42:50.301Z,97130.63
2023-05-09T19:46:57.742Z,97126.41
2023-05-09T19:51:01.123Z,97122.19
2023-05-09T19:55:04.679Z,97121.38
2023-05-09T19:59:08.272Z,97118.97
2023-05-09T20:03:13.416Z,97114.53
2023-05-09T20:07:16.593Z,97111.13
2023-05-09T20:11:19.888Z,97118.00
2023-05-09T20:15:22.937Z,97116.16
2023-05-09T20:19:28.047Z,97113.16
2023-05-09T20:23:31.489Z,97126.06
2023-05-09T20:27:35.567Z,97112.97
2023-05-09T20:31:39.148Z,97116.19
2023-05-09T20:35:44.428Z,97119.41
2023-05-09T20:39:48.020Z,97116.56
2023-05-09T20:43:51.194Z,97118.78
2023-05-09T20:47:54.636Z,97108.88
2023-05-09T20:51:59.612Z,97109.47
2023-05-09T20:56:03.803Z,97104.03
2023-05-09T21:00:10.955Z,97101.19
2023-05-09T21:04:15.795Z,97086.03
2023-05-09T21:08:20.186Z,97083.44
2023-05-09T21:12:23.337Z,97087.88
2023-05-09T21:16:28.722Z,97086.66
2023-05-09T21:20:31.929Z,97080.56
2023-05-09T21:24:36.635Z,97071.69
2023-05-09T21:28:39.968Z,97079.53
2023-05-09T21:32:43.293Z,97077.72
2023-05-09T21:36:46.783Z,97072.28
2023-05-09T21:40:52.783Z,97074.66
2023-05-09T21:44:55.975Z,97065.97
2023-05-09T21:48:59.213Z,97068.97
2023-05-09T21:53:02.579Z,97069.75
2023-05-09T21:57:07.628Z,97062.69
2023-05-09T22:01:11.100Z,97072.28
2023-05-09T22:05:16.002Z,97074.72
2023-05-09T22:09:19.785Z,97070.44
2023-05-09T22:13:24.429Z,97067.81
2023-05-09T22:17:28.143Z,97059.09
2023-05-09T22:21:31.596Z,97066.09
2023-05-09T22:25:35.346Z,97062.03
2023-05-09T22:29:40.279Z,97064.59
2023-05-09T22:33:43.185Z,97053.47
2023-05-09T22:37:46.220Z,97050.03
2023-05-09T22:41:49.926Z,97048.16
2023-05-09T22:45:54.874Z,97050.94
2023-05-09T22:49:59.615Z,97058.91
2023-05-09T22:54:05.616Z,97047.00
2023-05-09T22:58:09.692Z,97046.16
2023-05-09T23:02:14.985Z,97049.50
2023-05-09T23:06:18.150Z,97049.41
2023-05-09T23:10:21.681Z,97056.41
2023-05-09T23:14:25.279Z,97043.28
2023-05-09T23:18:29.843Z,97051.69
2023-05-09T23:22:33.355Z,97039.53
2023-05-09T23:26:36.831Z,97035.69
2023-05-09T23:30:40.629Z,97033.03
2023-05-09T23:34:45.660Z,97028.97
2023-05-09T23:38:49.934Z,97022.69
2023-05-09T23:42:53.072Z,97012.78
2023-05-09T23:46:56.820Z,97016.59
2023-05-09T23:51:01.853Z,97008.31
2023-05-09T23:55:05.737Z,97009.69
2023-05-09T23:59:09.326Z,97002.84
